Aeroporto :
LOGIN :

Iscrizione | Disclaimer

   EN    FR    IT 

 










Sommario :    VFR   VFR Marginale   IFR   IFR Intensivo   IFR Molto Intensivo
Visibilità : 
Base nubi : 
>= 8 km
>= 3000ft
5 / 8 km
1000 / 3000 ft
1500m / 5 km
500 / 1000 ft
800 / 1500m
200 / 500 ft
< 800m
< 200 ft
Simboli :   Temporali  Nebbia  Neve Forte  Precipitazioni Forti  Vento > 20 kt
SIGMETs :   Varie  Temporali  Ghiacco  Turbolenza  Onda orograficha  Ceneri Vulcaniche






- Altitudine del aeroporto : 353 ft
- Codice IATA : ZAG


LDZA - Zagreb Pleso

ULTIMO METAR :
  • 211200Z VRB01KT 8000 FEW005 04/01 Q1044 NOSIG

METARs OBSOLETI :
  • 211130Z VRB02KT 3000 BR SCT003 02/01 Q1044 BECMG TL1200 OVC005
  • 211100Z VRB01KT 2500 BR BKN002 02/01 Q1045 BECMG TL1200 4000 OVC005
  • 211030Z VRB01KT 1200 R05/1900N R23/P2000N BR OVC002 01/01 Q1045 BECMG TL1200 3000 OVC005
  • 211000Z VRB01KT 0400 R05/1300D R23/0800U FG VV002 01/01 Q1045 BECMG 2000 BR OVC003
  • 210930Z VRB01KT 0200 R05/0325N R23/0650U FG VV001 00/00 Q1045 BECMG FM1000 2000 BR OVC003

TAF TAF LDZA
Valido dal 21 a 12 ore il 22 a 12 ore UTC


211125Z 2112/2212 VRB02KT 4000 BR OVC003 TX03/2113Z TNM05/2205Z
PROB40 2113/2117 7000 NSW SCT005 BKN015
PROB40 2120/2200 0200 FZFG
BECMG 2200/2202 0100 FZFG VV001
BECMG 2209/2211 9999 NSW SCT020
ATIS : +385 1 6-259-214



MetMap, La meteo Aeronautica in un colpo d'occhio ! - Copyright ORBIFLY Dicembre 2007 - Disclaimer

ORBIFLY MET'MAP TEAM :

Programmazione e sviluppo : Alexandra Zaïnal
Concezione : Baudouin d'Aumeries
Aiuto per la programmazione : Marc-Olivier Méhu
Supporto tecnico e logistico : Manuel Goepfert
Aiuto per la traduzione : Arnaldo La Scala

Contatto : metmap@orbifly.com




FONTI E CREDITI :

   NOAA